createdAt,value
2019-05-06T00:00:55.326Z,5.87
2019-05-06T00:01:54.012Z,5.87
2019-05-06T00:02:59.153Z,6.30
2019-05-06T00:04:04.986Z,6.47
2019-05-06T00:05:10.244Z,6.20
2019-05-06T00:06:15.426Z,5.80
2019-05-06T00:07:20.570Z,6.27
2019-05-06T00:08:25.780Z,5.83
2019-05-06T00:09:30.894Z,5.80
2019-05-06T00:10:37.173Z,6.53
2019-05-06T00:11:42.376Z,6.47
2019-05-06T00:12:47.573Z,6.50
2019-05-06T00:13:54.349Z,6.40
2019-05-06T00:14:59.889Z,6.17
2019-05-06T00:16:05.414Z,6.47
2019-05-06T00:17:10.633Z,6.00
2019-05-06T00:18:15.873Z,6.87
2019-05-06T00:19:21.079Z,5.90
2019-05-06T00:20:26.378Z,6.80
2019-05-06T00:21:35.289Z,6.47
2019-05-06T00:22:39.566Z,5.80
2019-05-06T00:23:54.716Z,6.23
2019-05-06T00:25:07.362Z,5.97
2019-05-06T00:26:44.831Z,6.23
2019-05-06T00:28:07.690Z,6.17
2019-05-06T00:29:15.977Z,6.20
2019-05-06T00:30:21.302Z,6.17
2019-05-06T00:31:26.535Z,6.20
2019-05-06T00:32:31.703Z,6.50
2019-05-06T00:33:36.762Z,6.03
2019-05-06T00:34:43.655Z,6.23
2019-05-06T00:35:48.954Z,6.67
2019-05-06T00:36:55.151Z,6.70
2019-05-06T00:38:00.378Z,6.07
2019-05-06T00:39:33.653Z,6.33
2019-05-06T00:40:41.089Z,5.73
2019-05-06T00:41:50.671Z,6.13
2019-05-06T00:43:06.950Z,5.87
2019-05-06T00:44:14.294Z,5.80
2019-05-06T00:45:19.071Z,5.67
2019-05-06T00:46:24.356Z,6.27
2019-05-06T00:47:29.616Z,6.67
2019-05-06T00:48:34.889Z,5.93
2019-05-06T00:49:40.133Z,6.10
2019-05-06T00:50:45.331Z,5.90
2019-05-06T00:51:50.595Z,7.03
2019-05-06T00:52:56.557Z,6.23
2019-05-06T00:54:08.886Z,5.93
2019-05-06T00:55:14.046Z,6.60
2019-05-06T00:56:19.349Z,5.90
2019-05-06T00:57:44.496Z,7.33
2019-05-06T00:58:49.788Z,6.77
2019-05-06T00:59:54.934Z,6.03
2019-05-06T01:01:00.097Z,6.10
2019-05-06T01:02:05.280Z,6.10
2019-05-06T01:03:11.704Z,6.40
2019-05-06T01:04:16.826Z,6.47
2019-05-06T01:05:24.293Z,7.43
2019-05-06T01:06:28.954Z,6.17
2019-05-06T01:07:34.529Z,6.50
2019-05-06T01:08:39.697Z,6.73
2019-05-06T01:09:44.860Z,6.80
2019-05-06T01:10:50.299Z,6.73
2019-05-06T01:11:57.472Z,7.50
2019-05-06T01:13:20.366Z,6.27
2019-05-06T01:14:39.579Z,6.03
2019-05-06T01:15:45.014Z,6.53
2019-05-06T01:16:50.275Z,7.20
2019-05-06T01:17:55.527Z,7.90
2019-05-06T01:19:00.647Z,7.10
2019-05-06T01:20:05.869Z,7.10
2019-05-06T01:21:14.517Z,7.20
2019-05-06T01:22:19.685Z,7.00
2019-05-06T01:23:24.844Z,7.43
2019-05-06T01:24:30.081Z,6.77
2019-05-06T01:25:35.334Z,6.93
2019-05-06T01:26:41.460Z,7.87
2019-05-06T01:27:46.597Z,6.73
2019-05-06T01:28:51.768Z,7.00
2019-05-06T01:29:56.853Z,7.03
2019-05-06T01:31:04.162Z,6.93
2019-05-06T01:32:08.837Z,7.30
2019-05-06T01:33:14.601Z,6.87
2019-05-06T01:34:19.840Z,7.10
2019-05-06T01:35:25.087Z,7.90
2019-05-06T01:36:30.402Z,7.33
2019-05-06T01:37:35.873Z,7.53
2019-05-06T01:39:00.076Z,7.80
2019-05-06T01:40:18.795Z,7.30
2019-05-06T01:41:44.677Z,6.43
2019-05-06T01:42:54.535Z,7.13
2019-05-06T01:43:59.688Z,7.73
2019-05-06T01:45:07.429Z,7.33
2019-05-06T01:46:13.986Z,7.47
2019-05-06T01:47:19.253Z,7.17
2019-05-06T01:48:44.230Z,8.07
2019-05-06T01:49:48.838Z,7.73
2019-05-06T01:50:54.090Z,6.83
2019-05-06T01:51:59.394Z,7.67
2019-05-06T01:53:05.055Z,7.60
2019-05-06T01:54:10.271Z,7.70
2019-05-06T01:55:15.825Z,8.07
2019-05-06T01:56:21.055Z,7.73
2019-05-06T01:57:26.334Z,8.20
2019-05-06T01:58:33.444Z,8.00
2019-05-06T01:59:38.363Z,9.03
2019-05-06T02:00:43.765Z,8.60
2019-05-06T02:01:58.173Z,7.73
2019-05-06T02:02:55.900Z,8.47
2019-05-06T02:04:01.038Z,8.33
2019-05-06T02:05:06.303Z,8.53
2019-05-06T02:06:11.471Z,8.37
2019-05-06T02:07:16.861Z,8.07
2019-05-06T02:08:24.330Z,7.30
2019-05-06T02:09:29.074Z,7.90
2019-05-06T02:10:35.581Z,8.37
2019-05-06T02:11:41.142Z,8.33
2019-05-06T02:12:46.196Z,7.73
2019-05-06T02:13:51.294Z,7.97
2019-05-06T02:14:56.549Z,8.10
2019-05-06T02:16:03.876Z,8.57
2019-05-06T02:17:08.602Z,8.00
2019-05-06T02:18:14.680Z,8.73
2019-05-06T02:19:19.887Z,8.60
2019-05-06T02:20:25.159Z,7.83
2019-05-06T02:21:48.204Z,8.43
2019-05-06T02:22:59.658Z,8.13
2019-05-06T02:24:06.770Z,7.87
2019-05-06T02:25:22.015Z,7.37
2019-05-06T02:26:27.185Z,8.20
2019-05-06T02:27:34.037Z,7.63
2019-05-06T02:28:41.302Z,8.37
2019-05-06T02:29:54.189Z,9.63
2019-05-06T02:31:17.273Z,8.10
2019-05-06T02:32:45.595Z,9.13
2019-05-06T02:34:19.085Z,8.90
2019-05-06T02:35:27.093Z,8.70
2019-05-06T02:36:46.457Z,8.53
2019-05-06T02:37:51.745Z,9.30
2019-05-06T02:38:56.962Z,8.47
2019-05-06T02:40:04.176Z,9.87
2019-05-06T02:41:10.058Z,9.47
2019-05-06T02:42:15.270Z,9.43
2019-05-06T02:43:23.422Z,9.20
2019-05-06T02:44:28.698Z,9.77
2019-05-06T02:45:33.912Z,9.23
2019-05-06T02:46:43.837Z,10.37
2019-05-06T02:47:57.370Z,9.10
2019-05-06T02:49:24.389Z,9.40
2019-05-06T02:50:33.897Z,9.00
2019-05-06T02:51:39.320Z,10.30
2019-05-06T02:52:44.516Z,8.80
2019-05-06T02:53:53.906Z,8.60
2019-05-06T02:54:57.816Z,9.28
2019-05-06T02:56:04.001Z,8.80
2019-05-06T02:57:09.672Z,8.70
2019-05-06T02:58:15.156Z,9.03
2019-05-06T02:59:23.814Z,9.67
2019-05-06T03:00:27.282Z,9.33
2019-05-06T03:01:34.062Z,8.90
2019-05-06T03:02:43.679Z,9.20
2019-05-06T03:03:46.118Z,9.67
2019-05-06T03:04:52.861Z,9.13
2019-05-06T03:05:58.302Z,9.73
2019-05-06T03:07:03.949Z,9.10
2019-05-06T03:08:09.186Z,9.80
2019-05-06T03:09:14.386Z,9.33
2019-05-06T03:10:19.672Z,9.87
2019-05-06T03:11:24.793Z,9.57
2019-05-06T03:12:30.003Z,9.33
2019-05-06T03:13:35.165Z,8.87
2019-05-06T03:14:43.469Z,9.73
2019-05-06T03:15:47.349Z,8.90
2019-05-06T03:16:53.933Z,9.17
2019-05-06T03:17:59.390Z,9.93
2019-05-06T03:19:04.628Z,9.43
2019-05-06T03:20:13.789Z,10.47
2019-05-06T03:21:57.613Z,9.60
2019-05-06T03:23:06.801Z,8.83
2019-05-06T03:24:32.935Z,9.07
2019-05-06T03:25:39.396Z,9.00
2019-05-06T03:26:44.543Z,9.07
2019-05-06T03:27:53.086Z,8.63
2019-05-06T03:28:56.638Z,9.03
2019-05-06T03:30:04.074Z,8.83
2019-05-06T03:31:08.985Z,8.73
2019-05-06T03:32:21.490Z,8.80
2019-05-06T03:33:44.780Z,8.43
2019-05-06T03:34:52.643Z,8.80
2019-05-06T03:35:50.199Z,9.13
2019-05-06T03:36:48.079Z,8.27
2019-05-06T03:37:49.736Z,8.27
2019-05-06T03:38:55.095Z,8.03
2019-05-06T03:40:02.794Z,9.10
2019-05-06T03:41:07.148Z,9.53
2019-05-06T03:42:15.927Z,9.00
2019-05-06T03:43:19.074Z,8.67
2019-05-06T03:44:24.331Z,8.67
2019-05-06T03:45:49.407Z,8.73
2019-05-06T03:47:25.766Z,8.53
2019-05-06T03:48:34.345Z,8.37
2019-05-06T03:49:43.643Z,9.23
2019-05-06T03:50:48.839Z,8.93
2019-05-06T03:51:56.451Z,8.87
2019-05-06T03:53:03.270Z,9.53
2019-05-06T03:54:08.880Z,8.77
2019-05-06T03:55:14.191Z,9.13
2019-05-06T03:56:23.890Z,9.10
2019-05-06T03:57:29.847Z,8.83
2019-05-06T03:58:37.657Z,9.33
2019-05-06T03:59:43.779Z,9.13
2019-05-06T04:00:49.796Z,8.77
2019-05-06T04:01:55.080Z,9.57
2019-05-06T04:03:02.925Z,9.33
2019-05-06T04:04:07.158Z,9.03
2019-05-06T04:05:13.314Z,10.47
2019-05-06T04:06:19.314Z,9.57
2019-05-06T04:07:28.114Z,9.50
2019-05-06T04:08:34.433Z,11.07
2019-05-06T04:09:39.767Z,9.63
2019-05-06T04:10:45.579Z,11.37
2019-05-06T04:11:54.166Z,10.77
2019-05-06T04:13:03.881Z,10.23
2019-05-06T04:14:08.107Z,11.27
2019-05-06T04:15:14.642Z,10.00
2019-05-06T04:16:26.664Z,11.00
2019-05-06T04:17:49.691Z,11.17
2019-05-06T04:19:07.798Z,11.83
2019-05-06T04:20:34.260Z,10.37
2019-05-06T04:21:46.626Z,9.80
2019-05-06T04:23:13.528Z,10.32
2019-05-06T04:24:28.572Z,11.55
2019-05-06T04:25:52.715Z,10.37
2019-05-06T04:27:25.851Z,10.53
2019-05-06T04:28:34.210Z,11.73
2019-05-06T04:29:42.829Z,11.57
2019-05-06T04:30:47.575Z,11.50
2019-05-06T04:31:53.951Z,10.90
2019-05-06T04:32:59.464Z,11.90
2019-05-06T04:34:12.704Z,11.47
2019-05-06T04:35:13.494Z,11.43
2019-05-06T04:36:18.444Z,11.30
2019-05-06T04:37:24.320Z,11.03
2019-05-06T04:38:29.564Z,11.53
2019-05-06T04:39:34.871Z,10.87
2019-05-06T04:40:40.126Z,12.05
2019-05-06T04:41:45.267Z,10.23
2019-05-06T04:42:52.797Z,11.47
2019-05-06T04:43:57.378Z,11.00
2019-05-06T04:45:04.537Z,10.70
2019-05-06T04:46:10.150Z,10.47
2019-05-06T04:47:15.419Z,11.00
2019-05-06T04:48:23.466Z,11.47
2019-05-06T04:49:27.562Z,10.37
2019-05-06T04:50:33.340Z,12.13
2019-05-06T04:51:38.795Z,11.90
2019-05-06T04:52:43.983Z,11.13
2019-05-06T04:53:49.293Z,11.43
2019-05-06T04:54:54.603Z,10.93
2019-05-06T04:55:59.959Z,11.57
2019-05-06T04:57:06.317Z,11.77
2019-05-06T04:58:13.485Z,11.53
2019-05-06T04:59:18.685Z,10.70
2019-05-06T05:00:23.970Z,10.73
2019-05-06T05:01:29.191Z,10.87
2019-05-06T05:02:34.510Z,11.50
2019-05-06T05:03:42.587Z,10.77
2019-05-06T05:04:46.645Z,10.60
2019-05-06T05:05:53.102Z,10.67
2019-05-06T05:06:59.524Z,10.57
2019-05-06T05:08:04.765Z,10.97
2019-05-06T05:09:16.555Z,11.73
2019-05-06T05:10:23.379Z,10.53
2019-05-06T05:11:47.611Z,12.07
2019-05-06T05:13:15.024Z,11.47
2019-05-06T05:14:39.319Z,11.00
2019-05-06T05:16:03.715Z,10.33
2019-05-06T05:17:29.869Z,10.13
2019-05-06T05:18:39.646Z,10.40
2019-05-06T05:19:45.007Z,10.30
2019-05-06T05:20:50.194Z,10.20
2019-05-06T05:22:05.956Z,11.30
2019-05-06T05:23:12.400Z,11.27
2019-05-06T05:24:17.627Z,10.70
2019-05-06T05:25:22.835Z,11.27
2019-05-06T05:26:32.222Z,11.00
2019-05-06T05:27:37.714Z,11.00
2019-05-06T05:28:43.058Z,12.13
2019-05-06T05:29:48.252Z,11.70
2019-05-06T05:30:53.514Z,10.53
2019-05-06T05:31:58.586Z,11.83
2019-05-06T05:33:03.691Z,11.83
2019-05-06T05:34:09.351Z,10.67
2019-05-06T05:35:15.578Z,11.93
2019-05-06T05:36:23.198Z,11.87
2019-05-06T05:37:28.482Z,11.40
2019-05-06T05:38:35.423Z,10.87
2019-05-06T05:39:42.463Z,10.27
2019-05-06T05:40:47.491Z,10.83
2019-05-06T05:41:53.871Z,10.70
2019-05-06T05:43:09.078Z,11.23
2019-05-06T05:44:23.851Z,12.00
2019-05-06T05:45:29.325Z,10.50
2019-05-06T05:46:34.665Z,10.47
2019-05-06T05:47:39.945Z,11.50
2019-05-06T05:48:58.788Z,10.63
2019-05-06T05:50:23.732Z,10.33
2019-05-06T05:51:31.891Z,11.40
2019-05-06T05:52:36.714Z,11.03
2019-05-06T05:53:42.587Z,10.97
2019-05-06T05:54:47.908Z,11.27
2019-05-06T05:55:53.241Z,12.33
2019-05-06T05:56:58.675Z,10.73
2019-05-06T05:58:04.008Z,11.53
2019-05-06T05:59:12.136Z,11.43
2019-05-06T06:00:17.630Z,11.93
2019-05-06T06:01:23.965Z,11.43
2019-05-06T06:02:29.227Z,10.70
2019-05-06T06:03:34.588Z,10.47
2019-05-06T06:04:51.975Z,10.67
2019-05-06T06:05:46.591Z,10.97
2019-05-06T06:06:52.058Z,10.47
2019-05-06T06:07:57.366Z,11.57
2019-05-06T06:09:03.223Z,10.97
2019-05-06T06:10:18.847Z,11.30
2019-05-06T06:11:27.721Z,11.03
2019-05-06T06:12:32.808Z,12.63
2019-05-06T06:13:37.900Z,11.00
2019-05-06T06:14:56.116Z,12.40
2019-05-06T06:16:09.633Z,14.47
2019-05-06T06:17:25.562Z,12.10
2019-05-06T06:18:48.860Z,11.90
2019-05-06T06:19:58.488Z,12.20
2019-05-06T06:21:27.895Z,12.03
2019-05-06T06:22:30.482Z,11.60
2019-05-06T06:23:38.658Z,12.00
2019-05-06T06:24:44.602Z,12.10
2019-05-06T06:25:52.926Z,12.90
2019-05-06T06:26:57.779Z,13.33
2019-05-06T06:28:02.920Z,12.30
2019-05-06T06:29:08.205Z,12.03
2019-05-06T06:30:13.405Z,12.40
2019-05-06T06:31:23.657Z,12.87
2019-05-06T06:32:32.428Z,13.13
2019-05-06T06:33:37.454Z,12.17
2019-05-06T06:35:06.655Z,12.97
2019-05-06T06:36:12.236Z,12.50
2019-05-06T06:37:45.809Z,12.10
2019-05-06T06:38:54.796Z,13.07
2019-05-06T06:40:02.523Z,12.10
2019-05-06T06:41:08.915Z,12.40
2019-05-06T06:42:14.211Z,12.67
2019-05-06T06:43:23.018Z,12.17
2019-05-06T06:44:32.954Z,13.23
2019-05-06T06:45:38.694Z,13.33
2019-05-06T06:46:43.933Z,12.33
2019-05-06T06:47:49.417Z,12.87
2019-05-06T06:48:54.679Z,12.73
2019-05-06T06:49:59.825Z,13.03
2019-05-06T06:51:04.879Z,12.73
2019-05-06T06:52:12.364Z,12.90
2019-05-06T06:53:17.285Z,12.83
2019-05-06T06:54:22.909Z,13.07
2019-05-06T06:55:28.363Z,12.73
2019-05-06T06:57:05.557Z,12.00
2019-05-06T06:58:28.041Z,12.80
2019-05-06T06:59:46.288Z,11.97
2019-05-06T07:01:12.233Z,11.67
2019-05-06T07:02:45.611Z,11.47
2019-05-06T07:04:03.196Z,12.37
2019-05-06T07:05:42.456Z,13.77
2019-05-06T07:06:50.540Z,11.67
2019-05-06T07:07:55.803Z,12.47
2019-05-06T07:09:02.714Z,12.23
2019-05-06T07:10:12.111Z,12.30
2019-05-06T07:11:17.402Z,12.07
2019-05-06T07:12:23.457Z,11.70
2019-05-06T07:13:28.820Z,11.90
2019-05-06T07:14:36.249Z,12.63
2019-05-06T07:15:42.652Z,12.73
2019-05-06T07:16:48.197Z,11.67
2019-05-06T07:17:53.368Z,12.77
2019-05-06T07:18:58.528Z,11.90
2019-05-06T07:20:07.312Z,12.77
2019-05-06T07:21:33.989Z,12.20
2019-05-06T07:22:38.377Z,10.87
2019-05-06T07:23:43.638Z,11.20
2019-05-06T07:24:48.920Z,11.27
2019-05-06T07:25:54.541Z,11.33
2019-05-06T07:27:22.823Z,12.17
2019-05-06T07:28:28.072Z,12.23
2019-05-06T07:29:33.317Z,11.00
2019-05-06T07:30:38.521Z,11.60
2019-05-06T07:31:46.846Z,12.17
2019-05-06T07:32:52.777Z,12.00
2019-05-06T07:33:58.736Z,12.33
2019-05-06T07:35:06.232Z,11.37
2019-05-06T07:36:12.862Z,12.17
2019-05-06T07:37:17.966Z,12.90
2019-05-06T07:38:23.579Z,11.60
2019-05-06T07:39:28.796Z,11.90
2019-05-06T07:40:34.016Z,11.97
2019-05-06T07:42:04.284Z,12.00
2019-05-06T07:43:31.052Z,11.20
2019-05-06T07:44:56.358Z,11.27
2019-05-06T07:46:06.203Z,10.00
2019-05-06T07:47:33.445Z,11.30
2019-05-06T07:48:38.670Z,11.03
2019-05-06T07:49:44.082Z,11.57
2019-05-06T07:50:49.374Z,11.13
2019-05-06T07:51:54.674Z,11.70
2019-05-06T07:53:09.789Z,11.00
2019-05-06T07:54:14.982Z,10.70
2019-05-06T07:55:22.970Z,11.37
2019-05-06T07:56:28.286Z,11.17
2019-05-06T07:57:33.462Z,10.87
2019-05-06T07:58:38.618Z,11.10
2019-05-06T07:59:43.869Z,11.13
2019-05-06T08:00:49.183Z,10.43
2019-05-06T08:01:54.454Z,10.50
2019-05-06T08:03:02.326Z,11.37
2019-05-06T08:04:07.359Z,10.57
2019-05-06T08:05:12.794Z,9.90
2019-05-06T08:06:18.097Z,10.80
2019-05-06T08:07:23.302Z,10.70
2019-05-06T08:08:28.379Z,11.43
2019-05-06T08:09:33.573Z,10.83
2019-05-06T08:10:38.731Z,10.73
2019-05-06T08:11:44.015Z,10.67
2019-05-06T08:12:49.243Z,25.50
2019-05-06T08:13:56.254Z,12.13
2019-05-06T08:15:05.265Z,11.23
2019-05-06T08:16:09.456Z,22.50
2019-05-06T08:17:29.343Z,19.23
2019-05-06T08:18:34.666Z,12.40
2019-05-06T08:19:42.188Z,10.57
2019-05-06T08:20:46.832Z,9.93
2019-05-06T08:21:53.843Z,10.40
2019-05-06T08:23:12.479Z,9.63
2019-05-06T08:24:17.191Z,9.60
2019-05-06T08:25:22.995Z,10.17
2019-05-06T08:26:28.281Z,9.43
2019-05-06T08:27:33.473Z,9.50
2019-05-06T08:28:41.707Z,8.43
2019-05-06T08:29:45.520Z,9.43
2019-05-06T08:30:53.035Z,9.10
2019-05-06T08:31:57.746Z,9.00
2019-05-06T08:33:02.911Z,8.73
2019-05-06T08:34:08.248Z,8.07
2019-05-06T08:35:15.023Z,8.33
2019-05-06T08:36:27.488Z,8.20
2019-05-06T08:37:34.720Z,8.57
2019-05-06T08:38:57.977Z,8.57
2019-05-06T08:40:04.876Z,7.03
2019-05-06T08:41:11.878Z,7.27
2019-05-06T08:42:17.278Z,6.93
2019-05-06T08:43:22.504Z,6.33
2019-05-06T08:44:27.731Z,6.07
2019-05-06T08:45:34.102Z,5.13
2019-05-06T08:46:43.356Z,5.63
2019-05-06T08:47:52.238Z,5.70
2019-05-06T08:48:57.095Z,5.87
2019-05-06T08:50:33.727Z,6.07
2019-05-06T08:51:47.685Z,6.30
2019-05-06T08:53:13.606Z,6.37
2019-05-06T08:54:23.163Z,5.57
2019-05-06T08:55:32.574Z,5.73
2019-05-06T08:56:37.933Z,5.37
2019-05-06T08:57:43.160Z,5.40
2019-05-06T08:58:49.873Z,4.50
2019-05-06T08:59:55.261Z,4.37
2019-05-06T09:01:07.069Z,4.33
2019-05-06T09:02:13.755Z,4.47
2019-05-06T09:03:19.113Z,4.73
2019-05-06T09:04:24.344Z,4.80
2019-05-06T09:05:29.642Z,3.97
2019-05-06T09:06:34.960Z,4.67
2019-05-06T09:07:40.303Z,4.87
2019-05-06T09:08:45.466Z,4.10
2019-05-06T09:09:52.642Z,4.00
2019-05-06T09:10:57.640Z,4.70
2019-05-06T09:12:02.929Z,4.13
2019-05-06T09:13:08.114Z,4.40
2019-05-06T09:14:14.081Z,4.57
2019-05-06T09:15:21.851Z,3.90
2019-05-06T09:16:26.584Z,4.00
2019-05-06T09:17:33.042Z,3.50
2019-05-06T09:18:38.428Z,3.73
2019-05-06T09:19:43.751Z,3.80
2019-05-06T09:20:49.067Z,4.10
2019-05-06T09:21:54.553Z,3.80
2019-05-06T09:23:00.002Z,3.90
2019-05-06T09:24:05.380Z,3.70
2019-05-06T09:25:12.796Z,3.60
2019-05-06T09:26:22.343Z,3.37
2019-05-06T09:27:45.112Z,4.00
2019-05-06T09:28:56.883Z,3.73
2019-05-06T09:30:13.127Z,3.43
2019-05-06T09:31:46.412Z,3.13
2019-05-06T09:32:52.158Z,3.83
2019-05-06T09:34:02.712Z,3.50
2019-05-06T09:35:09.347Z,2.97
2019-05-06T09:36:14.687Z,2.93
2019-05-06T09:37:20.117Z,3.40
2019-05-06T09:38:25.343Z,3.47
2019-05-06T09:39:32.232Z,3.20
2019-05-06T09:40:37.604Z,3.30
2019-05-06T09:41:46.686Z,2.97
2019-05-06T09:42:51.942Z,4.07
2019-05-06T09:43:56.747Z,3.87
2019-05-06T09:45:02.381Z,3.70
2019-05-06T09:46:07.869Z,3.67
2019-05-06T09:47:19.137Z,4.10
2019-05-06T09:48:43.457Z,3.40
2019-05-06T09:49:48.759Z,3.77
2019-05-06T09:50:56.941Z,3.60
2019-05-06T09:52:02.557Z,3.83
2019-05-06T09:53:12.940Z,4.07
2019-05-06T09:54:39.464Z,3.70
2019-05-06T09:56:03.679Z,4.00
2019-05-06T09:57:15.775Z,3.87
2019-05-06T09:58:22.864Z,3.80
2019-05-06T09:59:28.159Z,3.80
2019-05-06T10:00:36.065Z,3.53
2019-05-06T10:01:43.542Z,3.47
2019-05-06T10:02:49.587Z,4.00
2019-05-06T10:03:56.104Z,4.33
2019-05-06T10:05:03.614Z,3.97
2019-05-06T10:06:09.824Z,3.83
2019-05-06T10:07:18.089Z,4.17
2019-05-06T10:08:23.276Z,3.77
2019-05-06T10:09:28.862Z,3.60
2019-05-06T10:10:34.189Z,4.07
2019-05-06T10:11:42.326Z,3.83
2019-05-06T10:12:48.109Z,3.90
2019-05-06T10:13:53.734Z,4.00
2019-05-06T10:15:03.216Z,3.83
2019-05-06T10:16:07.651Z,4.10
2019-05-06T10:17:13.281Z,4.17
2019-05-06T10:18:18.718Z,4.27
2019-05-06T10:19:24.090Z,3.53
2019-05-06T10:20:29.731Z,3.63
2019-05-06T10:21:35.025Z,3.70
2019-05-06T10:22:40.286Z,3.53
2019-05-06T10:23:45.461Z,4.00
2019-05-06T10:24:52.281Z,4.03
2019-05-06T10:25:58.137Z,4.27
2019-05-06T10:27:03.740Z,4.27
2019-05-06T10:28:15.595Z,3.70
2019-05-06T10:29:35.088Z,3.83
2019-05-06T10:30:40.475Z,4.20
2019-05-06T10:31:49.667Z,4.67
2019-05-06T10:32:57.673Z,4.40
2019-05-06T10:34:14.053Z,3.70
2019-05-06T10:35:22.060Z,4.90
2019-05-06T10:36:32.436Z,4.00
2019-05-06T10:37:54.266Z,3.70
2019-05-06T10:39:05.869Z,4.20
2019-05-06T10:40:26.686Z,3.97
2019-05-06T10:41:35.814Z,4.27
2019-05-06T10:42:48.770Z,4.40
2019-05-06T10:44:19.357Z,4.50
2019-05-06T10:45:29.431Z,4.73
2019-05-06T10:46:34.781Z,4.50
2019-05-06T10:47:43.339Z,4.90
2019-05-06T10:48:48.719Z,5.03
2019-05-06T10:49:54.179Z,4.63
2019-05-06T10:51:13.534Z,5.33
2019-05-06T10:52:24.319Z,5.47
2019-05-06T10:53:29.623Z,5.07
2019-05-06T10:54:34.972Z,4.83
2019-05-06T10:55:42.800Z,4.90
2019-05-06T10:57:02.315Z,4.53
2019-05-06T10:58:07.625Z,4.33
2019-05-06T10:59:13.399Z,4.73
2019-05-06T11:00:22.618Z,4.40
2019-05-06T11:01:33.078Z,6.90
2019-05-06T11:03:00.648Z,6.03
2019-05-06T11:04:06.082Z,5.23
2019-05-06T11:05:11.699Z,5.20
2019-05-06T11:06:16.938Z,5.43
2019-05-06T11:07:31.831Z,5.63
2019-05-06T11:08:29.331Z,4.57
2019-05-06T11:09:34.682Z,4.60
2019-05-06T11:10:44.119Z,4.20
2019-05-06T11:11:47.450Z,4.30
2019-05-06T11:12:52.767Z,4.87
2019-05-06T11:14:03.125Z,4.77
2019-05-06T11:15:07.924Z,4.13
2019-05-06T11:16:13.290Z,4.30
2019-05-06T11:17:18.600Z,5.10
2019-05-06T11:18:23.936Z,4.53
2019-05-06T11:19:29.147Z,4.80
2019-05-06T11:20:34.480Z,4.70
2019-05-06T11:21:44.722Z,5.13
2019-05-06T11:22:46.697Z,5.33
2019-05-06T11:23:52.667Z,5.37
2019-05-06T11:24:58.260Z,5.23
2019-05-06T11:26:03.473Z,5.33
2019-05-06T11:27:24.410Z,5.77
2019-05-06T11:28:35.319Z,5.43
2019-05-06T11:29:43.521Z,5.57
2019-05-06T11:31:14.930Z,5.80
2019-05-06T11:32:33.053Z,5.80
2019-05-06T11:33:44.299Z,5.97
2019-05-06T11:35:12.310Z,6.30
2019-05-06T11:36:32.931Z,6.00
2019-05-06T11:37:53.537Z,5.47
2019-05-06T11:39:01.915Z,5.53
2019-05-06T11:40:09.409Z,6.03
2019-05-06T11:41:14.758Z,5.27
2019-05-06T11:42:31.861Z,5.33
2019-05-06T11:43:32.321Z,5.37
2019-05-06T11:44:36.983Z,6.03
2019-05-06T11:45:42.796Z,7.13
2019-05-06T11:46:48.266Z,6.33
2019-05-06T11:47:55.850Z,5.77
2019-05-06T11:49:02.826Z,5.83
2019-05-06T11:50:09.116Z,5.87
2019-05-06T11:51:17.087Z,5.10
2019-05-06T11:52:22.688Z,5.20
2019-05-06T11:53:28.291Z,5.40
2019-05-06T11:54:33.883Z,6.13
2019-05-06T11:55:39.259Z,5.80
2019-05-06T11:56:50.782Z,5.63
2019-05-06T11:57:52.965Z,6.67
2019-05-06T11:58:58.841Z,6.47
2019-05-06T12:00:05.037Z,6.30
2019-05-06T12:01:14.470Z,6.27
2019-05-06T12:02:21.064Z,6.50
2019-05-06T12:03:27.292Z,6.17
2019-05-06T12:04:32.873Z,6.37
2019-05-06T12:05:38.371Z,5.73
2019-05-06T12:06:43.576Z,6.50
2019-05-06T12:08:01.777Z,5.90
2019-05-06T12:08:55.863Z,6.10
2019-05-06T12:10:02.539Z,5.53
2019-05-06T12:11:09.288Z,4.83
2019-05-06T12:12:14.589Z,5.03
2019-05-06T12:13:19.849Z,4.63
2019-05-06T12:14:25.125Z,5.30
2019-05-06T12:15:33.132Z,4.60
2019-05-06T12:16:38.294Z,4.83
2019-05-06T12:17:45.511Z,5.20
2019-05-06T12:18:52.769Z,5.83
2019-05-06T12:19:57.492Z,5.23
2019-05-06T12:21:09.193Z,6.23
2019-05-06T12:22:09.561Z,6.80
2019-05-06T12:23:15.711Z,7.23
2019-05-06T12:24:22.943Z,7.60
2019-05-06T12:25:28.068Z,7.13
2019-05-06T12:26:34.992Z,7.57
2019-05-06T12:27:46.460Z,7.63
2019-05-06T12:29:02.644Z,7.80
2019-05-06T12:30:08.163Z,6.57
2019-05-06T12:31:13.544Z,6.30
2019-05-06T12:32:27.895Z,6.40
2019-05-06T12:33:36.728Z,5.83
2019-05-06T12:34:42.975Z,6.20
2019-05-06T12:35:48.423Z,6.00
2019-05-06T12:36:56.647Z,7.20
2019-05-06T12:38:06.770Z,7.17
2019-05-06T12:39:39.715Z,6.07
2019-05-06T12:40:44.962Z,6.17
2019-05-06T12:42:15.442Z,6.80
2019-05-06T12:43:38.469Z,7.03
2019-05-06T12:45:13.077Z,6.80
2019-05-06T12:46:23.219Z,6.60
2019-05-06T12:47:47.103Z,6.90
2019-05-06T12:48:52.548Z,6.77
2019-05-06T12:49:57.785Z,7.60
2019-05-06T12:51:03.275Z,7.57
2019-05-06T12:52:08.737Z,7.50
2019-05-06T12:53:14.061Z,6.83
2019-05-06T12:54:19.528Z,8.30
2019-05-06T12:55:25.614Z,7.90
2019-05-06T12:56:30.784Z,8.20
2019-05-06T12:57:35.986Z,7.40
2019-05-06T12:58:44.344Z,7.90
2019-05-06T12:59:49.223Z,8.10
2019-05-06T13:00:54.506Z,8.50
2019-05-06T13:02:02.676Z,9.43
2019-05-06T13:03:07.946Z,8.47
2019-05-06T13:04:13.763Z,8.77
2019-05-06T13:05:19.171Z,8.90
2019-05-06T13:06:26.390Z,8.03
2019-05-06T13:07:43.634Z,7.93
2019-05-06T13:08:58.946Z,8.13
2019-05-06T13:09:59.539Z,8.00
2019-05-06T13:11:05.141Z,8.33
2019-05-06T13:12:12.453Z,9.07
2019-05-06T13:13:18.850Z,7.97
2019-05-06T13:14:24.155Z,8.30
2019-05-06T13:15:29.417Z,7.47
2019-05-06T13:16:34.661Z,7.00
2019-05-06T13:17:42.380Z,7.30
2019-05-06T13:18:47.894Z,7.83
2019-05-06T13:19:53.936Z,7.77
2019-05-06T13:20:59.454Z,7.07
2019-05-06T13:22:05.172Z,7.33
2019-05-06T13:23:20.841Z,8.23
2019-05-06T13:24:22.882Z,7.43
2019-05-06T13:25:28.446Z,7.37
2019-05-06T13:26:33.813Z,8.27
2019-05-06T13:27:39.409Z,8.43
2019-05-06T13:28:48.686Z,8.67
2019-05-06T13:29:56.925Z,8.43
2019-05-06T13:31:16.074Z,8.03
2019-05-06T13:32:12.669Z,8.70
2019-05-06T13:33:26.243Z,7.07
2019-05-06T13:34:33.392Z,7.53
2019-05-06T13:35:38.517Z,7.00
2019-05-06T13:36:43.739Z,8.43
2019-05-06T13:37:49.142Z,9.47
2019-05-06T13:39:10.767Z,9.67
2019-05-06T13:40:04.973Z,9.50
2019-05-06T13:41:12.560Z,9.60
2019-05-06T13:42:19.129Z,10.27
2019-05-06T13:43:44.045Z,9.70
2019-05-06T13:44:49.447Z,10.27
2019-05-06T13:45:56.320Z,9.33
2019-05-06T13:47:02.973Z,8.60
2019-05-06T13:48:17.357Z,9.27
2019-05-06T13:49:42.586Z,10.13
2019-05-06T13:50:47.798Z,9.47
2019-05-06T13:52:01.015Z,9.57
2019-05-06T13:53:11.163Z,9.50
2019-05-06T13:54:15.773Z,9.73
2019-05-06T13:55:19.336Z,9.27
2019-05-06T13:56:24.613Z,9.07
2019-05-06T13:57:32.060Z,8.37
2019-05-06T13:58:37.439Z,8.03
2019-05-06T13:59:44.037Z,7.97
2019-05-06T14:00:51.888Z,7.60
2019-05-06T14:02:08.485Z,8.07
2019-05-06T14:03:17.619Z,8.47
2019-05-06T14:04:24.155Z,8.57
2019-05-06T14:05:29.520Z,9.73
2019-05-06T14:06:34.817Z,9.50
2019-05-06T14:07:40.105Z,9.63
2019-05-06T14:08:45.561Z,9.87
2019-05-06T14:09:53.235Z,10.23
2019-05-06T14:11:00.021Z,10.47
2019-05-06T14:12:11.331Z,10.80
2019-05-06T14:14:03.848Z,10.97
2019-05-06T14:15:27.359Z,11.27
2019-05-06T14:17:05.337Z,10.70
2019-05-06T14:18:13.084Z,11.67
2019-05-06T14:19:24.198Z,13.03
2019-05-06T14:20:33.582Z,13.93
2019-05-06T14:21:43.241Z,13.40
2019-05-06T14:22:48.698Z,13.80
2019-05-06T14:23:54.476Z,13.70
2019-05-06T14:25:18.005Z,13.20
2019-05-06T14:26:36.001Z,14.33
2019-05-06T14:27:43.238Z,13.87
2019-05-06T14:29:09.943Z,14.47
2019-05-06T14:30:22.745Z,14.87
2019-05-06T14:31:33.248Z,15.33
2019-05-06T14:32:38.533Z,15.40
2019-05-06T14:33:43.812Z,14.70
2019-05-06T14:34:49.093Z,14.07
2019-05-06T14:35:54.363Z,14.20
2019-05-06T14:36:59.623Z,14.50
2019-05-06T14:38:04.937Z,14.30
2019-05-06T14:39:17.766Z,16.60
2019-05-06T14:40:24.628Z,16.50
2019-05-06T14:41:32.554Z,14.87
2019-05-06T14:42:36.951Z,14.60
2019-05-06T14:43:42.814Z,13.73
2019-05-06T14:44:49.423Z,13.70
2019-05-06T14:45:54.595Z,14.10
2019-05-06T14:47:04.339Z,14.97
2019-05-06T14:48:09.762Z,14.33
2019-05-06T14:49:15.051Z,14.93
2019-05-06T14:50:29.395Z,14.60
2019-05-06T14:51:27.321Z,13.73
2019-05-06T14:52:33.515Z,14.07
2019-05-06T14:53:38.828Z,13.73
2019-05-06T14:54:53.388Z,14.03
2019-05-06T14:56:02.380Z,13.00
2019-05-06T14:57:12.289Z,13.37
2019-05-06T14:58:17.512Z,14.40
2019-05-06T14:59:23.527Z,13.67
2019-05-06T15:00:28.722Z,13.40
2019-05-06T15:01:35.214Z,13.10
2019-05-06T15:02:42.715Z,12.93
2019-05-06T15:03:47.284Z,12.10
2019-05-06T15:04:53.493Z,12.23
2019-05-06T15:05:59.124Z,11.60